sensor_id;sensor_type;location;lat;lon;timestamp;pressure;altitude;pressure_sealevel;temperature
15709;BMP180;7954;51.914;8.420;2023-08-08T00:00:52;100133.16;;;19.60
15709;BMP180;7954;51.914;8.420;2023-08-08T00:03:20;100128.63;;;19.65
15709;BMP180;7954;51.914;8.420;2023-08-08T00:05:50;100134.88;;;19.67
15709;BMP180;7954;51.914;8.420;2023-08-08T00:08:18;100115.09;;;19.73
15709;BMP180;7954;51.914;8.420;2023-08-08T00:10:47;100120.81;;;19.77
15709;BMP180;7954;51.914;8.420;2023-08-08T00:13:15;100107.13;;;19.84
15709;BMP180;7954;51.914;8.420;2023-08-08T00:15:43;100101.44;;;19.86
15709;BMP180;7954;51.914;8.420;2023-08-08T00:18:12;100097.59;;;19.83
15709;BMP180;7954;51.914;8.420;2023-08-08T00:20:39;100089.56;;;19.87
15709;BMP180;7954;51.914;8.420;2023-08-08T00:23:09;100093.94;;;19.88
15709;BMP180;7954;51.914;8.420;2023-08-08T00:25:38;100083.81;;;20.02
15709;BMP180;7954;51.914;8.420;2023-08-08T00:28:06;100088.22;;;20.09
15709;BMP180;7954;51.914;8.420;2023-08-08T00:30:33;100095.94;;;20.16
15709;BMP180;7954;51.914;8.420;2023-08-08T00:33:03;100087.16;;;20.28
15709;BMP180;7954;51.914;8.420;2023-08-08T00:35:31;100094.72;;;20.34
15709;BMP180;7954;51.914;8.420;2023-08-08T00:37:59;100085.22;;;20.40
15709;BMP180;7954;51.914;8.420;2023-08-08T00:40:28;100074.38;;;20.35
15709;BMP180;7954;51.914;8.420;2023-08-08T00:42:56;100073.28;;;20.40
15709;BMP180;7954;51.914;8.420;2023-08-08T00:45:24;100066.31;;;20.39
15709;BMP180;7954;51.914;8.420;2023-08-08T00:47:53;100053.31;;;20.38
15709;BMP180;7954;51.914;8.420;2023-08-08T00:50:21;100060.97;;;20.31
15709;BMP180;7954;51.914;8.420;2023-08-08T00:52:49;100054.19;;;20.24
15709;BMP180;7954;51.914;8.420;2023-08-08T00:55:19;100045.81;;;20.32
15709;BMP180;7954;51.914;8.420;2023-08-08T00:57:49;100058.56;;;20.18
15709;BMP180;7954;51.914;8.420;2023-08-08T01:00:17;100055.09;;;20.25
15709;BMP180;7954;51.914;8.420;2023-08-08T01:02:45;100051.44;;;20.23
15709;BMP180;7954;51.914;8.420;2023-08-08T01:05:14;100044.44;;;20.15
15709;BMP180;7954;51.914;8.420;2023-08-08T01:07:48;100044.28;;;20.13
15709;BMP180;7954;51.914;8.420;2023-08-08T01:10:22;100049.44;;;20.20
15709;BMP180;7954;51.914;8.420;2023-08-08T01:12:57;100049.97;;;20.25
15709;BMP180;7954;51.914;8.420;2023-08-08T01:15:26;100056.78;;;20.31
15709;BMP180;7954;51.914;8.420;2023-08-08T01:17:58;100047.47;;;20.39
15709;BMP180;7954;51.914;8.420;2023-08-08T01:20:27;100051.66;;;20.31
15709;BMP180;7954;51.914;8.420;2023-08-08T01:22:59;100050.19;;;20.40
15709;BMP180;7954;51.914;8.420;2023-08-08T01:25:31;100067.00;;;20.24
15709;BMP180;7954;51.914;8.420;2023-08-08T01:28:00;100054.00;;;20.30
15709;BMP180;7954;51.914;8.420;2023-08-08T01:30:28;100060.81;;;20.29
15709;BMP180;7954;51.914;8.420;2023-08-08T01:32:56;100045.03;;;20.33
15709;BMP180;7954;51.914;8.420;2023-08-08T01:35:27;100052.00;;;20.34
15709;BMP180;7954;51.914;8.420;2023-08-08T01:38:00;100034.44;;;20.37
15709;BMP180;7954;51.914;8.420;2023-08-08T01:40:31;100042.13;;;20.30
15709;BMP180;7954;51.914;8.420;2023-08-08T01:42:59;100037.69;;;20.22
15709;BMP180;7954;51.914;8.420;2023-08-08T01:45:27;100044.28;;;20.06
15709;BMP180;7954;51.914;8.420;2023-08-08T01:47:55;100041.72;;;20.13
15709;BMP180;7954;51.914;8.420;2023-08-08T01:50:23;100047.38;;;20.11
15709;BMP180;7954;51.914;8.420;2023-08-08T01:52:52;100054.16;;;20.10
15709;BMP180;7954;51.914;8.420;2023-08-08T01:55:20;100034.41;;;20.16
15709;BMP180;7954;51.914;8.420;2023-08-08T01:57:49;100046.53;;;19.91
15709;BMP180;7954;51.914;8.420;2023-08-08T02:00:17;100051.81;;;19.72
15709;BMP180;7954;51.914;8.420;2023-08-08T02:02:46;100047.72;;;19.60
15709;BMP180;7954;51.914;8.420;2023-08-08T02:05:14;100052.66;;;19.65
15709;BMP180;7954;51.914;8.420;2023-08-08T02:07:42;100055.81;;;19.36
15709;BMP180;7954;51.914;8.420;2023-08-08T02:10:10;100046.34;;;19.42
15709;BMP180;7954;51.914;8.420;2023-08-08T02:12:38;100039.84;;;19.58
15709;BMP180;7954;51.914;8.420;2023-08-08T02:15:09;100040.44;;;19.36
15709;BMP180;7954;51.914;8.420;2023-08-08T02:17:38;100047.22;;;19.36
15709;BMP180;7954;51.914;8.420;2023-08-08T02:20:07;100045.56;;;19.36
15709;BMP180;7954;51.914;8.420;2023-08-08T02:22:36;100035.56;;;19.45
15709;BMP180;7954;51.914;8.420;2023-08-08T02:25:05;100031.97;;;19.57
15709;BMP180;7954;51.914;8.420;2023-08-08T02:27:33;100020.53;;;19.41
15709;BMP180;7954;51.914;8.420;2023-08-08T02:30:02;100021.81;;;19.37
15709;BMP180;7954;51.914;8.420;2023-08-08T02:32:32;100021.81;;;19.37
15709;BMP180;7954;51.914;8.420;2023-08-08T02:35:00;100008.63;;;19.35
15709;BMP180;7954;51.914;8.420;2023-08-08T02:37:28;100027.28;;;19.40
15709;BMP180;7954;51.914;8.420;2023-08-08T02:39:56;100027.50;;;19.42
15709;BMP180;7954;51.914;8.420;2023-08-08T02:42:24;100021.97;;;19.39
15709;BMP180;7954;51.914;8.420;2023-08-08T02:44:52;100029.78;;;19.27
15709;BMP180;7954;51.914;8.420;2023-08-08T02:47:20;100019.53;;;19.20
15709;BMP180;7954;51.914;8.420;2023-08-08T02:49:51;100021.19;;;19.26
15709;BMP180;7954;51.914;8.420;2023-08-08T02:52:19;100021.75;;;19.31
15709;BMP180;7954;51.914;8.420;2023-08-08T02:54:47;100017.38;;;19.30
15709;BMP180;7954;51.914;8.420;2023-08-08T02:57:16;100024.41;;;19.18
15709;BMP180;7954;51.914;8.420;2023-08-08T02:59:44;100011.63;;;19.18
15709;BMP180;7954;51.914;8.420;2023-08-08T03:02:12;100011.09;;;19.21
15709;BMP180;7954;51.914;8.420;2023-08-08T03:04:40;100015.91;;;19.32
15709;BMP180;7954;51.914;8.420;2023-08-08T03:07:10;100010.66;;;19.37
15709;BMP180;7954;51.914;8.420;2023-08-08T03:09:38;100016.09;;;19.33
15709;BMP180;7954;51.914;8.420;2023-08-08T03:12:08;100016.84;;;19.32
15709;BMP180;7954;51.914;8.420;2023-08-08T03:14:36;100005.00;;;19.39
15709;BMP180;7954;51.914;8.420;2023-08-08T03:17:04;100002.81;;;19.42
15709;BMP180;7954;51.914;8.420;2023-08-08T03:19:32;99999.66;;;19.31
15709;BMP180;7954;51.914;8.420;2023-08-08T03:22:00;99983.56;;;19.39
15709;BMP180;7954;51.914;8.420;2023-08-08T03:24:30;99976.47;;;19.43
15709;BMP180;7954;51.914;8.420;2023-08-08T03:26:58;99975.78;;;19.58
15709;BMP180;7954;51.914;8.420;2023-08-08T03:29:26;99958.44;;;19.70
15709;BMP180;7954;51.914;8.420;2023-08-08T03:31:54;99968.69;;;19.70
15709;BMP180;7954;51.914;8.420;2023-08-08T03:34:22;99968.19;;;19.79
15709;BMP180;7954;51.914;8.420;2023-08-08T03:36:51;99976.41;;;19.77
15709;BMP180;7954;51.914;8.420;2023-08-08T03:39:19;99977.28;;;19.70
15709;BMP180;7954;51.914;8.420;2023-08-08T03:41:48;99962.44;;;19.61
15709;BMP180;7954;51.914;8.420;2023-08-08T03:44:16;99965.41;;;19.71
15709;BMP180;7954;51.914;8.420;2023-08-08T03:46:44;99970.22;;;19.82
15709;BMP180;7954;51.914;8.420;2023-08-08T03:49:12;99953.75;;;19.87
15709;BMP180;7954;51.914;8.420;2023-08-08T03:51:40;99956.31;;;19.87
15709;BMP180;7954;51.914;8.420;2023-08-08T03:54:08;99951.22;;;20.01
15709;BMP180;7954;51.914;8.420;2023-08-08T03:56:36;99955.78;;;19.96
15709;BMP180;7954;51.914;8.420;2023-08-08T03:59:06;99953.78;;;20.07
15709;BMP180;7954;51.914;8.420;2023-08-08T04:01:34;99945.00;;;20.12
15709;BMP180;7954;51.914;8.420;2023-08-08T04:04:04;99951.25;;;20.21
15709;BMP180;7954;51.914;8.420;2023-08-08T04:06:32;99946.84;;;20.27
15709;BMP180;7954;51.914;8.420;2023-08-08T04:09:00;99960.03;;;20.23
15709;BMP180;7954;51.914;8.420;2023-08-08T04:11:28;99945.41;;;20.15
15709;BMP180;7954;51.914;8.420;2023-08-08T04:13:56;99952.88;;;20.07
15709;BMP180;7954;51.914;8.420;2023-08-08T04:16:26;99961.47;;;19.94
15709;BMP180;7954;51.914;8.420;2023-08-08T04:18:54;99965.63;;;19.79
15709;BMP180;7954;51.914;8.420;2023-08-08T04:21:22;99982.69;;;19.93
15709;BMP180;7954;51.914;8.420;2023-08-08T04:23:51;99975.94;;;19.93
15709;BMP180;7954;51.914;8.420;2023-08-08T04:26:19;99976.69;;;19.99
15709;BMP180;7954;51.914;8.420;2023-08-08T04:28:47;99968.06;;;19.99
15709;BMP180;7954;51.914;8.420;2023-08-08T04:31:15;99974.13;;;19.99
15709;BMP180;7954;51.914;8.420;2023-08-08T04:33:45;99960.03;;;20.09
15709;BMP180;7954;51.914;8.420;2023-08-08T04:36:14;99972.28;;;20.05
15709;BMP180;7954;51.914;8.420;2023-08-08T04:38:42;99970.47;;;20.11
15709;BMP180;7954;51.914;8.420;2023-08-08T04:41:10;99965.91;;;20.15
15709;BMP180;7954;51.914;8.420;2023-08-08T04:43:38;99964.06;;;20.14
15709;BMP180;7954;51.914;8.420;2023-08-08T04:46:06;99960.22;;;20.18
15709;BMP180;7954;51.914;8.420;2023-08-08T04:48:34;99963.16;;;20.14
15709;BMP180;7954;51.914;8.420;2023-08-08T04:51:05;99962.25;;;20.34
15709;BMP180;7954;51.914;8.420;2023-08-08T04:53:33;99965.16;;;20.23
15709;BMP180;7954;51.914;8.420;2023-08-08T04:56:02;99942.44;;;20.12
15709;BMP180;7954;51.914;8.420;2023-08-08T04:58:30;99951.25;;;20.14
15709;BMP180;7954;51.914;8.420;2023-08-08T05:00:58;99949.44;;;20.20
15709;BMP180;7954;51.914;8.420;2023-08-08T05:03:26;99941.72;;;20.27
15709;BMP180;7954;51.914;8.420;2023-08-08T05:05:55;99942.28;;;20.39
15709;BMP180;7954;51.914;8.420;2023-08-08T05:08:24;99953.81;;;20.28
15709;BMP180;7954;51.914;8.420;2023-08-08T05:10:53;99947.59;;;20.26
15709;BMP180;7954;51.914;8.420;2023-08-08T05:13:21;99947.03;;;20.36
15709;BMP180;7954;51.914;8.420;2023-08-08T05:15:49;99951.63;;;20.38
15709;BMP180;7954;51.914;8.420;2023-08-08T05:18:16;99955.28;;;20.40
15709;BMP180;7954;51.914;8.420;2023-08-08T05:20:44;99956.03;;;20.46
15709;BMP180;7954;51.914;8.420;2023-08-08T05:23:12;99942.81;;;20.64
15709;BMP180;7954;51.914;8.420;2023-08-08T05:25:42;99956.38;;;20.49
15709;BMP180;7954;51.914;8.420;2023-08-08T05:28:10;99947.41;;;20.39
15709;BMP180;7954;51.914;8.420;2023-08-08T05:30:37;99944.28;;;20.62
15709;BMP180;7954;51.914;8.420;2023-08-08T05:33:05;99939.91;;;20.82
15709;BMP180;7954;51.914;8.420;2023-08-08T05:35:33;99937.69;;;20.92
15709;BMP180;7954;51.914;8.420;2023-08-08T05:38:01;99940.75;;;20.96
15709;BMP180;7954;51.914;8.420;2023-08-08T05:40:30;99940.59;;;21.02
15709;BMP180;7954;51.914;8.420;2023-08-08T05:42:59;99943.16;;;20.88
15709;BMP180;7954;51.914;8.420;2023-08-08T05:45:28;99943.00;;;20.93
15709;BMP180;7954;51.914;8.420;2023-08-08T05:47:56;99930.59;;;21.19
15709;BMP180;7954;51.914;8.420;2023-08-08T05:50:24;99940.75;;;20.96
15709;BMP180;7954;51.914;8.420;2023-08-08T05:52:52;99937.69;;;20.92
15709;BMP180;7954;51.914;8.420;2023-08-08T05:55:20;99930.44;;;21.17
15709;BMP180;7954;51.914;8.420;2023-08-08T05:57:48;99939.38;;;21.28
15709;BMP180;7954;51.914;8.420;2023-08-08T06:00:18;99937.63;;;21.06
15709;BMP180;7954;51.914;8.420;2023-08-08T06:02:46;99932.75;;;21.36
15709;BMP180;7954;51.914;8.420;2023-08-08T06:05:16;99937.94;;;21.23
15709;BMP180;7954;51.914;8.420;2023-08-08T06:07:44;99938.31;;;21.26
15709;BMP180;7954;51.914;8.420;2023-08-08T06:10:12;99954.44;;;21.32
15709;BMP180;7954;51.914;8.420;2023-08-08T06:12:41;99936.78;;;21.34
15709;BMP180;7954;51.914;8.420;2023-08-08T06:15:09;99945.84;;;21.17
15709;BMP180;7954;51.914;8.420;2023-08-08T06:17:39;99957.63;;;21.08
15709;BMP180;7954;51.914;8.420;2023-08-08T06:20:08;99946.41;;;21.08
15709;BMP180;7954;51.914;8.420;2023-08-08T06:22:37;99941.19;;;21.35
15709;BMP180;7954;51.914;8.420;2023-08-08T06:25:06;99956.91;;;21.52
15709;BMP180;7954;51.914;8.420;2023-08-08T06:27:35;99949.97;;;21.51
15709;BMP180;7954;51.914;8.420;2023-08-08T06:30:05;99949.97;;;21.51
15709;BMP180;7954;51.914;8.420;2023-08-08T06:32:33;99942.63;;;21.40
15709;BMP180;7954;51.914;8.420;2023-08-08T06:35:03;99952.94;;;21.33
15709;BMP180;7954;51.914;8.420;2023-08-08T06:37:31;99959.59;;;21.25
15709;BMP180;7954;51.914;8.420;2023-08-08T06:40:00;99963.69;;;21.02
15709;BMP180;7954;51.914;8.420;2023-08-08T06:42:27;99959.53;;;21.38
15709;BMP180;7954;51.914;8.420;2023-08-08T06:44:55;99946.69;;;21.75
15709;BMP180;7954;51.914;8.420;2023-08-08T06:47:23;99952.72;;;21.82
15709;BMP180;7954;51.914;8.420;2023-08-08T06:49:51;99943.56;;;22.06
15709;BMP180;7954;51.914;8.420;2023-08-08T06:52:22;99947.31;;;22.24
15709;BMP180;7954;51.914;8.420;2023-08-08T06:54:50;99952.16;;;22.14
15709;BMP180;7954;51.914;8.420;2023-08-08T06:57:18;99950.19;;;22.04
15709;BMP180;7954;51.914;8.420;2023-08-08T06:59:46;99948.78;;;22.29
15709;BMP180;7954;51.914;8.420;2023-08-08T07:02:18;99949.53;;;22.21
15709;BMP180;7954;51.914;8.420;2023-08-08T07:04:47;99952.91;;;22.42
15709;BMP180;7954;51.914;8.420;2023-08-08T07:07:15;99955.59;;;22.28
15709;BMP180;7954;51.914;8.420;2023-08-08T07:09:44;99946.19;;;22.22
15709;BMP180;7954;51.914;8.420;2023-08-08T07:12:12;99946.03;;;22.20
15709;BMP180;7954;51.914;8.420;2023-08-08T07:14:40;99945.81;;;22.26
15709;BMP180;7954;51.914;8.420;2023-08-08T07:17:08;99938.31;;;22.50
15709;BMP180;7954;51.914;8.420;2023-08-08T07:19:36;99925.88;;;22.76
15709;BMP180;7954;51.914;8.420;2023-08-08T07:22:04;99953.63;;;22.63
15709;BMP180;7954;51.914;8.420;2023-08-08T07:24:31;99935.31;;;22.54
15709;BMP180;7954;51.914;8.420;2023-08-08T07:27:01;99934.72;;;22.78
15709;BMP180;7954;51.914;8.420;2023-08-08T07:29:29;99934.88;;;22.80
15709;BMP180;7954;51.914;8.420;2023-08-08T07:31:58;99936.84;;;22.67
15709;BMP180;7954;51.914;8.420;2023-08-08T07:34:26;99928.88;;;22.72
15709;BMP180;7954;51.914;8.420;2023-08-08T07:36:54;99924.25;;;22.77
15709;BMP180;7954;51.914;8.420;2023-08-08T07:39:22;99921.84;;;22.78
15709;BMP180;7954;51.914;8.420;2023-08-08T07:41:50;99922.50;;;22.84
15709;BMP180;7954;51.914;8.420;2023-08-08T07:44:19;99914.41;;;22.51
15709;BMP180;7954;51.914;8.420;2023-08-08T07:46:47;99924.75;;;22.44
15709;BMP180;7954;51.914;8.420;2023-08-08T07:49:15;99920.06;;;22.33
15709;BMP180;7954;51.914;8.420;2023-08-08T07:51:43;99925.31;;;22.41
15709;BMP180;7954;51.914;8.420;2023-08-08T07:54:11;99925.94;;;22.32
15709;BMP180;7954;51.914;8.420;2023-08-08T07:56:39;99923.50;;;22.40
15709;BMP180;7954;51.914;8.420;2023-08-08T07:59:07;99918.72;;;22.59
15709;BMP180;7954;51.914;8.420;2023-08-08T08:01:37;99917.91;;;22.66
15709;BMP180;7954;51.914;8.420;2023-08-08T08:04:06;99921.69;;;22.92
15709;BMP180;7954;51.914;8.420;2023-08-08T08:06:34;99924.00;;;22.82
15709;BMP180;7954;51.914;8.420;2023-08-08T08:09:02;99920.88;;;22.63
15709;BMP180;7954;51.914;8.420;2023-08-08T08:11:30;99916.94;;;22.88
15709;BMP180;7954;51.914;8.420;2023-08-08T08:13:58;99927.09;;;22.87
15709;BMP180;7954;51.914;8.420;2023-08-08T08:16:26;99913.56;;;22.96
15709;BMP180;7954;51.914;8.420;2023-08-08T08:18:56;99924.16;;;22.84
15709;BMP180;7954;51.914;8.420;2023-08-08T08:21:24;99913.88;;;22.99
15709;BMP180;7954;51.914;8.420;2023-08-08T08:23:52;99918.69;;;23.19
15709;BMP180;7954;51.914;8.420;2023-08-08T08:26:20;99921.88;;;23.25
15709;BMP180;7954;51.914;8.420;2023-08-08T08:28:47;99919.41;;;23.18
15709;BMP180;7954;51.914;8.420;2023-08-08T08:31:15;99906.28;;;23.38
15709;BMP180;7954;51.914;8.420;2023-08-08T08:33:43;99905.09;;;23.28
15709;BMP180;7954;51.914;8.420;2023-08-08T08:36:13;99905.34;;;23.07
15709;BMP180;7954;51.914;8.420;2023-08-08T08:38:41;99917.44;;;22.77
15709;BMP180;7954;51.914;8.420;2023-08-08T08:41:11;99914.41;;;22.51
15709;BMP180;7954;51.914;8.420;2023-08-08T08:43:40;99911.31;;;22.62
15709;BMP180;7954;51.914;8.420;2023-08-08T08:46:09;99906.69;;;22.51
15709;BMP180;7954;51.914;8.420;2023-08-08T08:48:38;99911.81;;;22.51
15709;BMP180;7954;51.914;8.420;2023-08-08T08:51:06;99912.97;;;22.46
15709;BMP180;7954;51.914;8.420;2023-08-08T08:53:36;99916.63;;;22.48
15709;BMP180;7954;51.914;8.420;2023-08-08T08:56:06;99908.63;;;22.38
15709;BMP180;7954;51.914;8.420;2023-08-08T08:58:35;99909.63;;;22.47
15709;BMP180;7954;51.914;8.420;2023-08-08T09:01:03;99911.13;;;22.67
15709;BMP180;7954;51.914;8.420;2023-08-08T09:03:32;99897.75;;;22.93
15709;BMP180;7954;51.914;8.420;2023-08-08T09:06:00;99897.84;;;22.86
15709;BMP180;7954;51.914;8.420;2023-08-08T09:08:29;99894.94;;;22.83
15709;BMP180;7954;51.914;8.420;2023-08-08T09:10:59;99893.13;;;22.98
15709;BMP180;7954;51.914;8.420;2023-08-08T09:13:26;99897.75;;;22.93
15709;BMP180;7954;51.914;8.420;2023-08-08T09:15:54;99904.44;;;22.91
15709;BMP180;7954;51.914;8.420;2023-08-08T09:18:23;99921.16;;;22.35
15709;BMP180;7954;51.914;8.420;2023-08-08T09:20:52;99923.97;;;21.71
15709;BMP180;7954;51.914;8.420;2023-08-08T09:23:20;99941.50;;;20.95
15709;BMP180;7954;51.914;8.420;2023-08-08T09:25:49;99937.72;;;20.36
15709;BMP180;7954;51.914;8.420;2023-08-08T09:28:19;99946.50;;;20.38
15709;BMP180;7954;51.914;8.420;2023-08-08T09:30:48;99947.78;;;20.35
15709;BMP180;7954;51.914;8.420;2023-08-08T09:33:17;99955.06;;;19.97
15709;BMP180;7954;51.914;8.420;2023-08-08T09:35:45;99938.69;;;19.83
15709;BMP180;7954;51.914;8.420;2023-08-08T09:38:13;99933.28;;;20.01
15709;BMP180;7954;51.914;8.420;2023-08-08T09:40:41;99933.44;;;20.71
15709;BMP180;7954;51.914;8.420;2023-08-08T09:43:11;99932.28;;;21.11
15709;BMP180;7954;51.914;8.420;2023-08-08T09:45:40;99917.59;;;21.24
15709;BMP180;7954;51.914;8.420;2023-08-08T09:48:09;99908.41;;;21.62
15709;BMP180;7954;51.914;8.420;2023-08-08T09:50:37;99921.09;;;21.90
15709;BMP180;7954;51.914;8.420;2023-08-08T09:53:08;99916.69;;;21.89
15709;BMP180;7954;51.914;8.420;2023-08-08T09:55:37;99910.91;;;22.28
15709;BMP180;7954;51.914;8.420;2023-08-08T09:58:05;99918.75;;;22.36
15709;BMP180;7954;51.914;8.420;2023-08-08T10:00:35;99904.59;;;22.93
15709;BMP180;7954;51.914;8.420;2023-08-08T10:03:05;99902.09;;;23.32
15709;BMP180;7954;51.914;8.420;2023-08-08T10:05:34;99888.72;;;23.67
15709;BMP180;7954;51.914;8.420;2023-08-08T10:08:03;99898.44;;;23.69
15709;BMP180;7954;51.914;8.420;2023-08-08T10:10:32;99891.44;;;23.60
15709;BMP180;7954;51.914;8.420;2023-08-08T10:13:01;99894.00;;;23.60
15709;BMP180;7954;51.914;8.420;2023-08-08T10:15:29;99897.81;;;23.79
15709;BMP180;7954;51.914;8.420;2023-08-08T10:17:58;99892.81;;;23.41
15709;BMP180;7954;51.914;8.420;2023-08-08T10:20:27;99895.06;;;23.07
15709;BMP180;7954;51.914;8.420;2023-08-08T10:22:55;99893.31;;;23.30
15709;BMP180;7954;51.914;8.420;2023-08-08T10:25:27;99883.69;;;23.60
15709;BMP180;7954;51.914;8.420;2023-08-08T10:28:03;99890.06;;;23.79
15709;BMP180;7954;51.914;8.420;2023-08-08T10:30:54;99888.66;;;23.74
15709;BMP180;7954;51.914;8.420;2023-08-08T10:33:23;99884.59;;;23.76
15709;BMP180;7954;51.914;8.420;2023-08-08T10:36:02;99903.28;;;23.82
15709;BMP180;7954;51.914;8.420;2023-08-08T10:38:40;99867.81;;;23.88
15709;BMP180;7954;51.914;8.420;2023-08-08T10:41:11;99889.97;;;24.09
15709;BMP180;7954;51.914;8.420;2023-08-08T10:43:47;99888.47;;;24.20
15709;BMP180;7954;51.914;8.420;2023-08-08T10:46:23;99888.59;;;23.89
15709;BMP180;7954;51.914;8.420;2023-08-08T10:48:51;99893.22;;;24.48
15709;BMP180;7954;51.914;8.420;2023-08-08T10:51:21;99885.09;;;24.77
15709;BMP180;7954;51.914;8.420;2023-08-08T10:53:51;99878.44;;;24.96
15709;BMP180;7954;51.914;8.420;2023-08-08T10:56:19;99894.41;;;25.00
15709;BMP180;7954;51.914;8.420;2023-08-08T10:58:48;99871.19;;;25.26
15709;BMP180;7954;51.914;8.420;2023-08-08T11:01:17;99859.19;;;25.77
15709;BMP180;7954;51.914;8.420;2023-08-08T11:03:47;99867.22;;;26.32
15709;BMP180;7954;51.914;8.420;2023-08-08T11:06:16;99846.38;;;26.39
15709;BMP180;7954;51.914;8.420;2023-08-08T11:08:47;99837.22;;;26.34
15709;BMP180;7954;51.914;8.420;2023-08-08T11:11:16;99850.09;;;26.15
15709;BMP180;7954;51.914;8.420;2023-08-08T11:13:44;99851.09;;;26.26
15709;BMP180;7954;51.914;8.420;2023-08-08T11:16:14;99856.88;;;26.32
15709;BMP180;7954;51.914;8.420;2023-08-08T11:18:43;99841.97;;;26.38
15709;BMP180;7954;51.914;8.420;2023-08-08T11:21:11;99843.03;;;26.40
15709;BMP180;7954;51.914;8.420;2023-08-08T11:23:47;99845.97;;;26.61
15709;BMP180;7954;51.914;8.420;2023-08-08T11:26:17;99832.50;;;26.65
15709;BMP180;7954;51.914;8.420;2023-08-08T11:28:50;99829.03;;;27.10
15709;BMP180;7954;51.914;8.420;2023-08-08T11:31:19;99846.69;;;27.32
15709;BMP180;7954;51.914;8.420;2023-08-08T11:33:48;99840.94;;;27.26
15709;BMP180;7954;51.914;8.420;2023-08-08T11:36:16;99821.00;;;27.35
15709;BMP180;7954;51.914;8.420;2023-08-08T11:38:45;99832.41;;;27.64
15709;BMP180;7954;51.914;8.420;2023-08-08T11:41:15;99830.38;;;27.80
15709;BMP180;7954;51.914;8.420;2023-08-08T11:43:44;99821.16;;;28.11
15709;BMP180;7954;51.914;8.420;2023-08-08T11:46:13;99820.34;;;28.02
15709;BMP180;7954;51.914;8.420;2023-08-08T11:48:41;99817.00;;;27.57
15709;BMP180;7954;51.914;8.420;2023-08-08T11:51:09;99841.94;;;26.91
15709;BMP180;7954;51.914;8.420;2023-08-08T11:53:48;99822.78;;;26.62
15709;BMP180;7954;51.914;8.420;2023-08-08T11:56:19;99838.28;;;26.71
15709;BMP180;7954;51.914;8.420;2023-08-08T11:58:49;99841.19;;;26.92
15709;BMP180;7954;51.914;8.420;2023-08-08T12:01:22;99842.75;;;26.63
15709;BMP180;7954;51.914;8.420;2023-08-08T12:03:53;99842.13;;;26.66
15709;BMP180;7954;51.914;8.420;2023-08-08T12:06:21;99820.34;;;27.09
15709;BMP180;7954;51.914;8.420;2023-08-08T12:08:49;99809.81;;;27.08
15709;BMP180;7954;51.914;8.420;2023-08-08T12:11:19;99809.59;;;27.80
15709;BMP180;7954;51.914;8.420;2023-08-08T12:13:51;99805.66;;;28.31
15709;BMP180;7954;51.914;8.420;2023-08-08T12:16:19;99802.28;;;28.32
15709;BMP180;7954;51.914;8.420;2023-08-08T12:18:48;99787.47;;;28.31
15709;BMP180;7954;51.914;8.420;2023-08-08T12:21:16;99794.75;;;28.55
15709;BMP180;7954;51.914;8.420;2023-08-08T12:23:44;99801.25;;;28.70
15709;BMP180;7954;51.914;8.420;2023-08-08T12:26:12;99801.28;;;28.80
15709;BMP180;7954;51.914;8.420;2023-08-08T12:28:42;99801.25;;;28.70
15709;BMP180;7954;51.914;8.420;2023-08-08T12:31:11;99808.00;;;28.28
15709;BMP180;7954;51.914;8.420;2023-08-08T12:33:40;99802.13;;;28.21
15709;BMP180;7954;51.914;8.420;2023-08-08T12:36:08;99795.78;;;28.37
15709;BMP180;7954;51.914;8.420;2023-08-08T12:38:36;99781.16;;;28.09
15709;BMP180;7954;51.914;8.420;2023-08-08T12:41:04;99802.31;;;27.76
15709;BMP180;7954;51.914;8.420;2023-08-08T12:43:32;99811.97;;;27.87
15709;BMP180;7954;51.914;8.420;2023-08-08T12:46:02;99795.78;;;28.27
15709;BMP180;7954;51.914;8.420;2023-08-08T12:48:31;99806.75;;;28.73
15709;BMP180;7954;51.914;8.420;2023-08-08T12:50:59;99786.19;;;29.06
15709;BMP180;7954;51.914;8.420;2023-08-08T12:53:26;99804.94;;;29.02
15709;BMP180;7954;51.914;8.420;2023-08-08T12:55:55;99797.69;;;28.78
15709;BMP180;7954;51.914;8.420;2023-08-08T12:58:23;99790.78;;;29.59
15709;BMP180;7954;51.914;8.420;2023-08-08T13:00:52;99788.78;;;30.08
15709;BMP180;7954;51.914;8.420;2023-08-08T13:03:22;99838.78;;;30.57
15709;BMP180;7954;51.914;8.420;2023-08-08T13:05:50;99804.44;;;31.85
15709;BMP180;7954;51.914;8.420;2023-08-08T13:08:18;99785.94;;;31.82
15709;BMP180;7954;51.914;8.420;2023-08-08T13:10:46;99779.88;;;32.65
15709;BMP180;7954;51.914;8.420;2023-08-08T13:13:15;99770.44;;;32.67
15709;BMP180;7954;51.914;8.420;2023-08-08T13:15:42;99766.38;;;33.21
15709;BMP180;7954;51.914;8.420;2023-08-08T13:18:12;99814.81;;;33.15
15709;BMP180;7954;51.914;8.420;2023-08-08T13:20:41;99763.16;;;32.03
15709;BMP180;7954;51.914;8.420;2023-08-08T13:23:09;99787.00;;;30.61
15709;BMP180;7954;51.914;8.420;2023-08-08T13:25:37;99808.22;;;30.23
15709;BMP180;7954;51.914;8.420;2023-08-08T13:28:05;99776.41;;;30.27
15709;BMP180;7954;51.914;8.420;2023-08-08T13:30:33;99788.94;;;28.77
15709;BMP180;7954;51.914;8.420;2023-08-08T13:33:03;99802.56;;;27.69
15709;BMP180;7954;51.914;8.420;2023-08-08T13:35:31;99801.94;;;27.53
15709;BMP180;7954;51.914;8.420;2023-08-08T13:38:00;99804.63;;;27.44
15709;BMP180;7954;51.914;8.420;2023-08-08T13:40:28;99824.88;;;27.30
15709;BMP180;7954;51.914;8.420;2023-08-08T13:42:56;99855.25;;;27.68
15709;BMP180;7954;51.914;8.420;2023-08-08T13:45:25;99831.78;;;28.43
15709;BMP180;7954;51.914;8.420;2023-08-08T13:47:52;99806.78;;;28.93
15709;BMP180;7954;51.914;8.420;2023-08-08T13:50:20;99803.00;;;28.89
15709;BMP180;7954;51.914;8.420;2023-08-08T13:52:49;99804.38;;;29.16
15709;BMP180;7954;51.914;8.420;2023-08-08T13:55:20;99809.63;;;30.08
15709;BMP180;7954;51.914;8.420;2023-08-08T13:57:48;99818.69;;;30.98
15709;BMP180;7954;51.914;8.420;2023-08-08T14:00:16;99784.63;;;31.99
15709;BMP180;7954;51.914;8.420;2023-08-08T14:02:44;99813.19;;;31.62
15709;BMP180;7954;51.914;8.420;2023-08-08T14:05:12;99832.63;;;33.70
15709;BMP180;7954;51.914;8.420;2023-08-08T14:07:41;99810.31;;;35.10
15709;BMP180;7954;51.914;8.420;2023-08-08T14:10:10;99799.25;;;35.59
15709;BMP180;7954;51.914;8.420;2023-08-08T14:12:40;99815.84;;;35.58
15709;BMP180;7954;51.914;8.420;2023-08-08T14:15:08;99797.88;;;35.65
15709;BMP180;7954;51.914;8.420;2023-08-08T14:17:36;99807.53;;;36.25
15709;BMP180;7954;51.914;8.420;2023-08-08T14:20:05;99820.28;;;36.80
15709;BMP180;7954;51.914;8.420;2023-08-08T14:22:34;99809.41;;;36.58
15709;BMP180;7954;51.914;8.420;2023-08-08T14:25:02;99746.94;;;35.63
15709;BMP180;7954;51.914;8.420;2023-08-08T14:27:30;99808.31;;;36.08